Terminal Aerodrome Forecast
Issued by NWS

Home | Current Version | Previous Version | Text Only | Print | Product List | Glossary On
Versions: 1 2 3 4 5 6 7 8 9 10 11 12 13 14 15
000
FTUS43 KDDC 232320
TAFGCK
TAF
KGCK 232320Z 2400/2424 19020G27KT P6SM FEW250
     FM240400 16015KT P6SM SKC WS020/18045KT
     FM241400 22014KT P6SM FEW250
     FM242200 03004KT P6SM FEW200=

USA.gov is the U.S. government's official web portal to all federal, state and local government web resources and services.